Amboy, Washington
Current Conditions -  °F | °C
As of 8:53 AM on Sunday 23 Nov 2014 (Local Time) from KSPB Reporting Station
Overcast Overcast  
Wind Chill:   Ceiling: 1400
Heat Index:   Visibility: 10mi
Dew Point:   Wind: 9mph
Humidity: 86%   Direction: 170°S
Pressure: 30.23"   Gusts: NA
Location:  45.91°N, 122.45°W
Report Text: KSPB 231653Z AUTO 17008KT 10SM OVC014 09/07 A3023 RMK AO2 SLP237 T00890067
Loading
Personal Weather Stations






























Interactive Weather Map New forecast layout! Learn more

10-Day Weather Forecast

Advertisements
Track Severe Weather on mobile